AREA preflight bulletin
Updated "live" 24 Sep 2018, 18:08

back to the map




METAR og TAF


KANGERLUSSUAQ
  AKTUEL BGSF 241750Z AUTO 25007KT 9999NDV NCD 06/M07 Q0995=
  TAF 24 timer BGSF 241707Z 2418/2524 26008KT 9999 SCT060 BECMG 2421/2423 6000 -SNRA BKN030 TEMPO 2423/2516 2000 SN VV008 TEMPO 2516/2524 9999 NSW BKN050=

SISIMIUT
  SPECI(AL) BGSS 241801Z 32013G25KT 260V040 9999 -SHSN FEW005 BKN012 BKN025 03/M00 Q0997 RMK RWY 13 MOD TURB / RWY 31 SEV TURB=
  AKTUEL BGSS 241750Z 32010G23KT 220V020 9999 -SHSNRA FEW005 BKN012 BKN025 03/M00 Q0997 RMK RWY 13/31 MOD TURB=
  TAF 9 timer BGSS 241459Z 2415/2420 33015KT 9999 -RA SCT010 BKN030 TEMPO 2415/2418 30015G25KT BKN012 TEMPO 2418/2420 30015G25KT 4000 -SNRA BKN007=

MANIITSOQ
  AKTUEL BGMQ 241750Z AUTO 29014KT 9999NDV BKN080/// BKN100/// 04/02 Q0995=
  TAF 9 timer BGMQ 241200Z 2412/2418 VRB05KT 9999 BKN080 TEMPO 2412/2418 SCT080=

NUUK
  AKTUEL BGGH 241750Z 24004KT 200V300 9999 FEW060 BKN090 BKN120 06/00 Q0995=
  TAF 9 timer BGGH 241716Z 2418/2422 VRB05KT 9999 SCT100=

ILULISSAT
  AKTUEL BGJN 241750Z 02007KT 340V040 9999 BKN047 02/M02 Q0996=
  TAF 9 timer BGJN 241716Z 2418/2422 02005KT 9999 SCT020 BKN040 TEMPO 2418/2420 BKN020 BECMG 2420/2422 4000 -RASN BKN012=

AASIAAT
  AKTUEL BGAA 241750Z 26004KT 9999 SCT056 BKN069 BKN100 04/M01 Q0995=
  TAF 9 timer BGAA 241459Z 2415/2419 VRB05KT 9999 BKN090 TEMPO 2415/2419 BKN020=


SIGMETS:

Ingen SIGMET fundet:

NOTAM/SNOWTAM for operationel use has to be confirmed with the
nearest AIS Briefing Office prior to a flight.

ICAO
BGSF (KANGERLUSSUAQ)

FIR
BGGL

Notam_id:
BGA0431/18

valid from:
1809101703

E) PAPI LIGHTS ARE SET ON 10 PERCENT INTENSITY. 20 MINUTES PRIOR NOTICE REQUIRED TO CHANGE SETTING.

valid to:
1809301800EST


Replacing:
BGA0213/18

ICAO
BGSF (KANGERLUSSUAQ)

FIR
BGGL

Notam_id:
BGA0432/18

valid from:
1809101705

E) APCH LIGHTS ARE SET ON 10 PERCENT INTENSITY. 20 MINUTES PRIOR NOTICE REQUIRED TO CHANGE SETTING.

valid to:
1809301800EST


Replacing:
BGA0214/18

ICAO
BGSF (KANGERLUSSUAQ)

FIR
BGGL

Notam_id:
BGA0433/18

valid from:
1809101705

E) RWY EDGE LIGHTS ARE SET ON 10 PERCENT INTENSITY. 20 MINUTES PRIOR NOTICE REQUIRED TO CHANGE SETTING.

valid to:
1809301800EST


Replacing:
BGA0215/18

ICAO
BGSF (KANGERLUSSUAQ)

FIR
BGGL

Notam_id:
BGA0445/18

valid from:
1809131554

E) BGSF FBO E-MAIL ADDRESS: BGSF(AT)MIT.GL REF AIP GRL/AD 2 - BGSF, GEN 3.3 - 2 AND GEN 3.4 - 3.

valid to:
PERM




ICAO
BGSF (KANGERLUSSUAQ)

FIR
BGGL

Notam_id:
BGA0420/18

valid from:
1809071508

E) RWY MAINT IS BEING CONDUCTED. LANDINGS: MAINT WILL HAVE NO EFFECT. DEPARTURES: AIRCRAFT MAY EXPECT 09-B OR 27-C FOR DEPARTURE, ADVICE ATC PRIOR TO START UP IF FULL RWY LENGTH OR RWY 27 IS REQUIRED. FOR MORE INFORMATION: CONTACT ARO TEL. 00299 382905

valid to:
1809261900EST


Replacing:
BGA0419/18

ICAO
BGSS (SISIMIUT)

FIR
BGGL

Notam_id:
BGB0698/18

valid from:
1810110000

E) TRIGGER NOTAM - PERM AIP AIRAC AMDT 09/18 WEF 11 OCT 2018. CHANGE TO TEL, E-MAIL, RESCUE AND FIRE FIGHTING SERVICE AND FAX WITHDRAWN.

valid to:
1810242359




ICAO
BGSS (SISIMIUT)

FIR
BGGL

Notam_id:
BGB0770/18

valid from:
1809201702

E) FUEL NOT AVBL.

valid to:
1809261700EST




ICAO
BGSS (SISIMIUT)

FIR
BGGL

Notam_id:
BGB0728/18

valid from:
1808311834

E) BGSS AFIS FREQ 118,100 MHZ NO COVERAGE IN SECTOR BETWEEN 280 MAG AND 110 MAG BELOW 7000FT.

valid to:
1810311800EST




ICAO
BGMQ (MANIITSOQ)

FIR
BGGL

Notam_id:
BGB0697/18

valid from:
1810110000

E) TRIGGER NOTAM - PERM AIP AIRAC AMDT 09/18 WEF 11 OCT 2018. CHANGE TO TEL AND E-MAIL.

valid to:
1810242359




ICAO
BGMQ (MANIITSOQ)

FIR
BGGL

Notam_id:
BGB0618/18

valid from:
1807240705

E) CHANGES TO AD 2 BGMQ -1- ITEM 5 (GEOGRAPHICAL AND ADMINISTRATIVE DATA) TEL : +299 70 16 00 (MITTARFEQARFIIT) - 38 27 80 (MANIITSOQ LUFTHAVN) - 38 27 86 (AFIS) E-MAIL: BGMQ (AT) MIT.GL (AFIS

valid to:
PERM




ICAO
BGGH (NUUK)

FIR
BGGL

Notam_id:
BGB0511/18

valid from:
1806281450

E) BGGH AFIS FREQ 119.100 MHZ NO COVERAGE IN SECTOR BETWEEN 060 DEG MAG AND 210 DEG MAG BELOW FL100.

valid to:
1809301900EST


Replacing:
BGB0266/18

ICAO
BGGH (NUUK)

FIR
BGGL

Notam_id:
BGB0930/17

valid from:
1712181907

E) ERROR IN CHART FOR RNAV (GNSS) APPROACH RWY 23. WITH REF AIP GREENLAND AD 2-BGGH RNAV (GNSS) RWY 23-1. NEW OCA(H) LNAV/VNAV CLIMB 2.5 PERCENT CAT A TO READ 1310 (1029) INSTEAD OF 1230. NEW OCA(H) LNAV/VNAV CLIMB 2.5 PERCENT CAT B TO READ 1340 (1059) INSTEAD OF 1250. NEW OCA(H) LNAV/VNAV CLIMB 5.0 PERCENT CAT A TO READ 1300 (1019) INSTEAD OF 1070. NEW OCA(H) LNAV/VNAV CLIMB 5.0 PERCENT CAT B TO READ 1320 (1039) INSTEAD OF 1110. NEW OCA(H) LNAV CLIMB 5.0 PERCENT CAT A TO READ 1150 (869) IN-STEAD OF 1130. NEW OCA(H) LNAV CLIMB 5.0 PERCENT CAT B TO READ 1240 (959) INSTEAD OF 1230.

valid to:
PERM




ICAO
BGGH (NUUK)

FIR
BGGL

Notam_id:
BGB0715/18

valid from:
1808301353

E) CRANE RAISED AT PSN 641124N0514021W (AIR GREENLAND HANGAR AREA). TOP 82FT AGL.

valid to:
1809301900


Replacing:
BGB0639/18

ICAO
BGGH (NUUK)

FIR
BGGL

Notam_id:
BGA0451/18

valid from:
1809211000

E) REDUCED SNOW REMOVAL CAPACITY. ONLY ONE SWEEPER OUT OF TWO IS OPERATIONAL.

valid to:
1812151500EST




ICAO
BGJN (ILULISSAT)

FIR
BGGL

Notam_id:
BGB0696/18

valid from:
1810110000

E) TRIGGER NOTAM - PERM AIP AIRAC AMDT 09/18 WEF 11 OCT 2018. FAX WITHDRAWN.

valid to:
1810242359




ICAO
BGJN (ILULISSAT)

FIR
BGGL

Notam_id:
BGB0750/18

valid from:
1809110956

E) RWY 07/25 EVERY SECOND APCH LIGHT OUT OF SERVICE.

valid to:
1810312000




ICAO
BGJN (ILULISSAT)

FIR
BGGL

Notam_id:
BGB0772/18

valid from:
1809240939

E) SEA RESCUE NOT AVBL.

valid to:
1810031900




ICAO
BGJN (ILULISSAT)

FIR
BGGL

Notam_id:
BGB0605/18

valid from:
1807201213

E) ILULISSAT FAX +299 94 40 08 TERMINATED AND NO LONGER IN USE.

valid to:
PERM




ICAO
BGGL (SONDRESTROM FIR)

FIR
BGGL

Notam_id:
BGA0299/18

valid from:
1809130000

E) AIP AIRAC AMDT EFFECTIVE DATE 13 SEP 2018: NIL.

valid to:
1809262359




ICAO
BGGL (SONDRESTROM FIR)

FIR
BGGL

Notam_id:
BGA0405/18

valid from:
1809010501

E) CHECKLIST YEAR=2017 0269 YEAR=2018 0199 0213 0214 0215 0299 0365 0366 0383 0389 0393 0394 0401 0402 0403 LATEST PUBLICATIONS AIP AIRAC AMDT IFR 009/2018 EFFECTIVE DATE 11 OCT 18 AIP AMDT IFR 003/2018 EFFECTIVE DATE 15 MAR 18 AIP SUP IFR 006/2018 EFFECTIVE DATE 18 JUN 18 AIC IFR A003/2018 EFFECTIVE DATE 29 AUG 18

valid to:
1810010501EST


Replacing:
BGA0327/18

ICAO
BGGL (SONDRESTROM FIR)

FIR
BGGL

Notam_id:
BGB0731/18

valid from:
1809010502

E) CHECKLIST YEAR=2017 0740 0930 YEAR=2018 0384 0511 0523 0605 0618 0622 0631 0659 0679 0688 0696 0697 0698 0699 0704 0715 0716 0717 0721 0722 0726 0727 0728 0730 LATEST PUBLICATIONS AIP AIRAC AMDT IFR 009/2018 EFFECTIVE DATE 11 OCT 18 AIP AMDT IFR 003/2018 EFFECTIVE DATE 15 MAR 18 AIP SUP IFR 006/2018 EFFECTIVE DATE 18 JUN 18 AIC IFR A003/2018 EFFECTIVE DATE 29 AUG 18

valid to:
1810010502EST


Replacing:
BGB0641/18

ICAO
BGGL (SONDRESTROM FIR)

FIR
BGGL

Notam_id:
BGC0062/18

valid from:
1809010502

E) CHECKLIST YEAR=2018 0058 0059 0060 LATEST PUBLICATIONS AIP AIRAC AMDT IFR 009/2018 EFFECTIVE DATE 11 OCT 18 AIP AMDT IFR 003/2018 EFFECTIVE DATE 15 MAR 18 AIP SUP IFR 006/2018 EFFECTIVE DATE 18 JUN 18 AIC IFR A003/2018 EFFECTIVE DATE 29 AUG 18

valid to:
1810010502EST


Replacing:
BGC0056/18

ICAO
BGGL (SONDRESTROM FIR)

FIR
BGGL

Notam_id:
BGB0704/18

valid from:
1808241401

E) OBST LIGHTS ON MAST 213 ON THE SOUTHERN PART OF TUNULLIARFIK OUT OF SERVICE

valid to:
1810011800




ICAO
BGGL (SONDRESTROM FIR)

FIR
BGGL

Notam_id:
BGA0199/18

valid from:
1805310935

E) GREENLAND AND ADJACENT WATERS ARE CONSIDERED HOSTILE AREAS BY THE CIVIL AVIATION AUTHORITY (TBST). THREE MAJOR REASONS CONTRIBUTE TO DEFINING THE AREA AS HOSTILE: A SAFE FORCED LANDING CANNOT BE ACCOMPLISHED BECAUSE THE SURFACE IS INADEQUATE. THE HELICOPTER OCCUPANTS CANNOT BE ADEQUATELY PROTECTED FROM THE ELEMENTS. SEARCH AND RESCUE RESPONSE/CAPABILITY ARE NOT PROVIDED CONSISTENT WITH ANTICIPATED EXPOSURE.

valid to:
PERM




ICAO
BGAA (AASIAAT)

FIR
BGGL

Notam_id:
BGA0269/17

valid from:
1706081136

D) DAILY 1100-1115 2300-2315


E) ASCENT OR WEATHER BALLOON TAKES PLACE TWICE A DAY 1100-1115 AND 2300-2315. POSN 684201N0525105W LOCATED WEST OF THE AIRPORT AT A DISTANCE OF APPROX 3 KM. THE BALLOON CAN RISE TO A HEIGHT OF UP TO 35 KM. REF AIP GREENLAND AD 2 - BGAA - 4. F) SFC G) FL999

valid to:
PERM





Copyright Naviair   2003-2016